Time;durP1;ratioP1;P1;durP2;ratioP2;P2;SDS_P1;SDS_P2;PMS_P1;PMS_P2;Temp;Humidity;BMP_temperature;BMP_pressure;BME280_temperature;BME280_humidity;BME280_pressure;Samples;Min_cycle;Max_cycle;Signal;HPM_P1;HPM_P2
2021/06/21 00:02:03;;;;;;;0.77;0.55;;;;;;;;;;4969251;28;20015;-94
2021/06/21 00:04:29;;;;;;;6.88;0.95;;;;;;;;;;4973579;28;20026;-94
2021/06/21 00:06:56;;;;;;;1.95;1.17;;;;;;;;;;4973776;28;20123;-94
2021/06/21 00:09:22;;;;;;;1.25;0.60;;;;;;;;;;4974112;28;20035;-93
2021/06/21 00:11:48;;;;;;;0.60;0.35;;;;;;;;;;4953857;28;20034;-95
2021/06/21 00:14:15;;;;;;;8.23;1.05;;;;;;;;;;4954831;28;20117;-94
2021/06/21 00:16:41;;;;;;;0.88;0.40;;;;;;;;;;4974439;28;20027;-94
2021/06/21 00:19:07;;;;;;;1.35;0.60;;;;;;;;;;4982191;28;20554;-94
2021/06/21 00:21:33;;;;;;;0.50;0.43;;;;;;;;;;4956564;28;20519;-93
2021/06/21 00:23:59;;;;;;;4.00;0.30;;;;;;;;;;4981521;28;20054;-95
2021/06/21 00:26:25;;;;;;;7.72;0.82;;;;;;;;;;4973552;28;20018;-94
2021/06/21 00:28:51;;;;;;;2.72;0.98;;;;;;;;;;4967859;28;20045;-93
2021/06/21 00:31:17;;;;;;;0.73;0.60;;;;;;;;;;4956800;28;20023;-94
2021/06/21 00:33:43;;;;;;;0.52;0.47;;;;;;;;;;4973727;28;20027;-94
2021/06/21 00:36:09;;;;;;;0.98;0.40;;;;;;;;;;4982455;28;20069;-94
2021/06/21 00:38:35;;;;;;;0.65;0.57;;;;;;;;;;4973748;28;20111;-93
2021/06/21 00:41:01;;;;;;;6.13;1.15;;;;;;;;;;4953612;29;20038;-95
2021/06/21 00:43:27;;;;;;;0.90;0.60;;;;;;;;;;4972708;28;20031;-94
2021/06/21 00:45:53;;;;;;;4.15;0.40;;;;;;;;;;4972320;28;20065;-95
2021/06/21 00:48:19;;;;;;;2.28;0.50;;;;;;;;;;4973913;28;20054;-93
2021/06/21 00:50:46;;;;;;;0.63;0.57;;;;;;;;;;4972785;28;20058;-96
2021/06/21 00:53:14;;;;;;;0.50;0.40;;;;;;;;;;4973962;28;20019;-95
2021/06/21 00:55:40;;;;;;;2.28;0.60;;;;;;;;;;4973863;28;20317;-95
2021/06/21 00:58:06;;;;;;;17.13;1.05;;;;;;;;;;4989644;28;20471;-95
2021/06/21 01:00:32;;;;;;;5.78;0.75;;;;;;;;;;4982013;28;20121;-94
2021/06/21 01:03:02;;;;;;;0.30;0.30;;;;;;;;;;4956532;28;20023;-95
2021/06/21 01:05:31;;;;;;;2.25;1.25;;;;;;;;;;4973997;28;20030;-93
2021/06/21 01:07:57;;;;;;;1.23;0.98;;;;;;;;;;4973999;28;20130;-95
2021/06/21 01:10:25;;;;;;;0.70;0.50;;;;;;;;;;4973786;28;20814;-95
2021/06/21 01:13:03;;;;;;;1.75;0.70;;;;;;;;;;4960980;28;20023;-94
2021/06/21 01:15:35;;;;;;;0.93;0.82;;;;;;;;;;4951674;28;20035;-96
2021/06/21 01:18:01;;;;;;;5.95;0.60;;;;;;;;;;4976927;28;20018;-95
2021/06/21 01:20:44;;;;;;;1.38;1.17;;;;;;;;;;4977152;28;20046;-95
2021/06/21 01:23:22;;;;;;;3.35;0.73;;;;;;;;;;4956915;28;20065;-93
2021/06/21 01:25:55;;;;;;;4.75;0.88;;;;;;;;;;4969215;28;20074;-95
2021/06/21 01:28:30;;;;;;;1.25;0.75;;;;;;;;;;4971933;28;20042;-95
2021/06/21 01:31:17;;;;;;;3.75;0.95;;;18.80;66.10;;;;;;4971837;28;20051;-95
2021/06/21 01:33:43;;;;;;;0.87;0.50;;;;;;;;;;4959855;28;20063;-94
2021/06/21 01:36:11;;;;;;;1.93;1.00;;;;;;;;;;4976524;28;20105;-95
2021/06/21 01:38:45;;;;;;;1.67;1.13;;;;;;;;;;4977108;28;20062;-94
2021/06/21 01:41:16;;;;;;;2.47;1.17;;;;;;;;;;4977016;28;20114;-95
2021/06/21 01:43:44;;;;;;;2.63;1.95;;;;;;;;;;4959595;28;20038;-95
2021/06/21 01:46:11;;;;;;;2.13;0.55;;;;;;;;;;4976906;28;20491;-94
2021/06/21 01:48:39;;;;;;;1.42;0.52;;;;;;;;;;4976988;28;20743;-95
2021/06/21 01:51:05;;;;;;;1.52;1.40;;;;;;;;;;4977177;28;20039;-94
2021/06/21 01:53:33;;;;;;;6.43;0.98;;;;;;;;;;4959363;28;20023;-95
2021/06/21 01:56:00;;;;;;;2.00;0.90;;;;;;;;;;4961049;28;20028;-94
2021/06/21 01:58:26;;;;;;;;;;;;;;;;;;4971709;28;20027;-94
2021/06/21 02:00:53;;;;;;;1.15;0.80;;;;;;;;;;4969786;28;19960;-93
2021/06/21 02:03:19;;;;;;;1.20;0.65;;;;;;;;;;4970972;28;20023;-95
2021/06/21 02:05:46;;;;;;;8.18;1.48;;;;;;;;;;4976975;28;20027;-94
2021/06/21 02:08:13;;;;;;;1.60;1.07;;;;;;;;;;4976396;28;20039;-95
2021/06/21 02:10:39;;;;;;;;;;;;;;;;;;4957709;29;20330;-95
2021/06/21 02:13:07;;;;;;;1.92;1.00;;;;;;;;;;4971750;28;20553;-94
2021/06/21 02:15:33;;;;;;;2.97;1.90;;;;;;;;;;4958539;28;20022;-94
2021/06/21 02:17:59;;;;;;;3.75;1.00;;;;;;;;;;4958661;28;20130;-94
2021/06/21 02:20:26;;;;;;;4.27;1.60;;;;;;;;;;4959344;28;20131;-95
2021/06/21 02:22:52;;;;;;;3.40;1.07;;;;;;;;;;4958865;28;20031;-93
2021/06/21 02:25:19;;;;;;;7.82;1.50;;;;;;;;;;4972129;28;20041;-95
2021/06/21 02:27:45;;;;;;;8.18;1.10;;;;;;;;;;4958817;28;20054;-95
2021/06/21 02:30:13;;;;;;;3.80;1.67;;;;;;;;;;4974483;28;20054;-93
2021/06/21 02:32:40;;;;;;;;;;;18.30;66.90;;;;;;4959542;28;20092;-95
2021/06/21 02:35:09;;;;;;;2.00;1.25;;;;;;;;;;4976213;28;19940;-94
2021/06/21 02:37:38;;;;;;;8.45;1.00;;;;;;;;;;4956658;29;20023;-93
2021/06/21 02:40:06;;;;;;;2.80;1.05;;;;;;;;;;4971500;28;20066;-95
2021/06/21 02:42:32;;;;;;;4.70;1.15;;;;;;;;;;4975593;28;20392;-95
2021/06/21 02:44:58;;;;;;;3.03;0.88;;;;;;;;;;4965242;28;20479;-95
2021/06/21 02:47:24;;;;;;;4.97;1.20;;;;;;;;;;4992468;28;20484;-95
2021/06/21 02:49:51;;;;;;;4.97;1.27;;;;;;;;;;4975582;28;20030;-95
2021/06/21 02:52:23;;;;;;;3.83;1.30;;;;;;;;;;4993277;28;20029;-94
2021/06/21 02:55:08;;;;;;;2.30;1.80;;;;;;;;;;4963746;28;20042;-94
2021/06/21 02:57:46;;;;;;;11.57;1.38;;;;;;;;;;4975485;28;20030;-93
2021/06/21 03:00:12;;;;;;;7.82;1.30;;;;;;;;;;4958521;28;20475;-95
2021/06/21 03:02:39;;;;;;;3.85;1.20;;;;;;;;;;4975987;28;20034;-95
2021/06/21 03:05:06;;;;;;;;;;;18.10;65.70;;;;;;4976079;28;20023;-94
2021/06/21 03:07:32;;;;;;;2.75;1.00;;;;;;;;;;4957691;28;20021;-95
2021/06/21 03:09:59;;;;;;;1.48;1.10;;;;;;;;;;4954727;29;20049;-95
2021/06/21 03:12:26;;;;;;;2.65;1.00;;;;;;;;;;4966309;28;20030;-94
2021/06/21 03:14:52;;;;;;;1.70;1.05;;;;;;;;;;4957947;28;20030;-96
2021/06/21 03:17:31;;;;;;;1.55;1.45;;;;;;;;;;4958411;28;20034;-95
2021/06/21 03:20:04;;;;;;;7.38;1.95;;;;;;;;;;4957869;28;20114;-95
2021/06/21 03:22:39;;;;;;;8.00;1.38;;;;;;;;;;4957817;28;20401;-95
2021/06/21 03:25:09;;;;;;;4.22;1.33;;;;;;;;;;4958984;28;20035;-94
2021/06/21 03:27:39;;;;;;;11.35;1.05;;;;;;;;;;4965340;28;20030;-94
2021/06/21 03:30:09;;;;;;;1.77;0.98;;;;;;;;;;4965499;28;20447;-94
2021/06/21 03:32:37;;;;;;;3.83;0.85;;;;;;;;;;4959866;28;20019;-94
2021/06/21 03:35:06;;;;;;;2.38;1.55;;;;;;;;;;4971345;28;20039;-94
2021/06/21 03:37:32;;;;;;;2.90;1.02;;;;;;;;;;4938631;29;20499;-96
2021/06/21 03:40:01;;;;;;;0.70;0.52;;;;;;;;;;4969574;28;20101;-94
2021/06/21 03:42:27;;;;;;;1.08;0.63;;;;;;;;;;4973626;28;20025;-94
2021/06/21 03:44:56;;;;;;;3.63;1.25;;;;;;;;;;4957064;28;20026;-95
2021/06/21 03:47:23;;;;;;;1.55;0.80;;;;;;;;;;4974477;28;20031;-94
2021/06/21 03:49:49;;;;;;;7.13;2.22;;;;;;;;;;4957574;28;20034;-94
2021/06/21 03:52:18;;;;;;;6.45;1.27;;;;;;;;;;4974822;28;20015;-94
2021/06/21 03:54:44;;;;;;;1.67;1.40;;;;;;;;;;4956903;28;20039;-96
2021/06/21 03:57:11;;;;;;;2.08;0.95;;;;;;;;;;4974300;28;20015;-95
2021/06/21 03:59:40;;;;;;;1.40;1.00;;;;;;;;;;4974094;28;20054;-96
2021/06/21 04:02:06;;;;;;;6.72;1.10;;;;;;;;;;4974678;28;20102;-94
2021/06/21 04:04:35;;;;;;;1.52;0.75;;;;;;;;;;4973439;28;20030;-94
2021/06/21 04:07:04;;;;;;;1.25;0.93;;;;;;;;;;4959149;28;20055;-95
2021/06/21 04:09:33;;;;;;;6.53;1.10;;;;;;;;;;4966421;28;20049;-96
2021/06/21 04:11:59;;;;;;;6.03;2.05;;;;;;;;;;4958671;28;20110;-95
2021/06/21 04:14:25;;;;;;;2.88;1.25;;;;;;;;;;4974261;28;20559;-96
2021/06/21 04:16:51;;;;;;;3.47;1.98;;;;;;;;;;4956693;28;20106;-96
2021/06/21 04:19:17;;;;;;;2.90;1.73;;;;;;;;;;4958512;28;20024;-94
2021/06/21 04:21:43;;;;;;;8.43;1.00;;;;;;;;;;4967150;28;20623;-94
2021/06/21 04:24:10;;;;;;;2.22;1.10;;;;;;;;;;4956862;28;20023;-96
2021/06/21 04:26:36;;;;;;;1.93;0.97;;;;;;;;;;4973940;28;20027;-94
2021/06/21 04:29:03;;;;;;;3.58;0.93;;;;;;;;;;4956942;28;20029;-95
2021/06/21 04:31:29;;;;;;;5.97;1.02;;;;;;;;;;4974627;28;20031;-95
2021/06/21 04:33:55;;;;;;;7.05;2.22;;;;;;;;;;4963654;28;20139;-96
2021/06/21 04:36:21;;;;;;;3.40;1.35;;;;;;;;;;4961605;28;20357;-95
2021/06/21 04:38:47;;;;;;;2.20;1.00;;;;;;;;;;4958757;28;20035;-95
2021/06/21 04:41:13;;;;;;;4.70;1.48;;;;;;;;;;4974115;28;20077;-95
2021/06/21 04:43:39;;;;;;;10.57;1.00;;;;;;;;;;4973576;28;20031;-94
2021/06/21 04:46:05;;;;;;;5.43;2.10;;;;;;;;;;4961132;28;20042;-94
2021/06/21 04:48:35;;;;;;;15.70;2.33;;;;;;;;;;4967851;28;20086;-95
2021/06/21 04:51:01;;;;;;;1.88;1.33;;;;;;;;;;4957203;29;20031;-95
2021/06/21 04:53:27;;;;;;;7.32;1.65;;;;;;;;;;4976473;28;20019;-95
2021/06/21 04:55:53;;;;;;;7.60;1.40;;;;;;;;;;4977903;28;20073;-95
2021/06/21 04:58:19;;;;;;;1.40;1.00;;;;;;;;;;4977617;28;20027;-95
2021/06/21 05:00:45;;;;;;;3.72;1.95;;;;;;;;;;4977865;28;20126;-95
2021/06/21 05:03:11;;;;;;;7.90;1.10;;;;;;;;;;4957378;29;20019;-95
2021/06/21 05:05:37;;;;;;;3.03;1.50;;;;;;;;;;4961100;28;20054;-96
2021/06/21 05:08:03;;;;;;;3.38;2.75;;;;;;;;;;4976884;28;20039;-96
2021/06/21 05:10:30;;;;;;;1.55;1.17;;;;;;;;;;4977770;28;20069;-95
2021/06/21 05:12:56;;;;;;;2.60;1.30;;;;;;;;;;4977051;28;20118;-95
2021/06/21 05:15:22;;;;;;;6.45;1.77;;;;;;;;;;4978261;28;20031;-95
2021/06/21 05:17:48;;;;;;;7.47;1.92;;;;;;;;;;4978794;28;20027;-95
2021/06/21 05:20:14;;;;;;;6.82;2.28;;;;;;;;;;4979431;28;20051;-95
2021/06/21 05:22:40;;;;;;;8.85;2.38;;;;;;;;;;4951174;29;20030;-95
2021/06/21 05:25:07;;;;;;;3.75;2.85;;;;;;;;;;4976919;28;20131;-95
2021/06/21 05:27:39;;;;;;;2.55;1.95;;;;;;;;;;4990650;28;20022;-95
2021/06/21 05:30:06;;;;;;;9.48;3.78;;;;;;;;;;4980756;28;20023;-84
2021/06/21 05:32:32;;;;;;;6.30;2.10;;;;;;;;;;4970996;28;20497;-83
2021/06/21 05:34:58;;;;;;;3.90;2.22;;;;;;;;;;4969411;28;20357;-83
2021/06/21 05:37:24;;;;;;;5.00;2.50;;;;;;;;;;4969982;28;20102;-83
2021/06/21 05:39:50;;;;;;;10.13;2.78;;;;;;;;;;4969993;28;20039;-84
2021/06/21 05:42:17;;;;;;;3.67;2.50;;;;;;;;;;4951823;28;20463;-83
2021/06/21 05:44:44;;;;;;;7.15;3.42;;;;;;;;;;4970355;28;20129;-83
2021/06/21 05:47:10;;;;;;;6.85;4.13;;;;;;;;;;4970090;28;20488;-84
2021/06/21 05:49:36;;;;;;;6.57;3.88;;;;;;;;;;4961086;28;20128;-92
2021/06/21 05:52:02;;;;;;;11.70;4.82;;;;;;;;;;4979791;28;20034;-94
2021/06/21 05:54:28;;;;;;;10.10;3.20;;;;;;;;;;4973867;28;20031;-93
2021/06/21 05:56:54;;;;;;;7.30;4.00;;;;;;;;;;4976170;28;20023;-94
2021/06/21 05:59:20;;;;;;;4.68;2.38;;;;;;;;;;4973866;28;20038;-94
2021/06/21 06:01:46;;;;;;;20.70;2.75;;;;;;;;;;4974572;28;20073;-92
2021/06/21 06:04:12;;;;;;;5.10;2.63;;;;;;;;;;4949619;28;20506;-87
2021/06/21 06:06:38;;;;;;;4.13;2.85;;;;;;;;;;4983426;28;20420;-89
2021/06/21 06:09:04;;;;;;;4.93;2.33;;;;;;;;;;4982111;28;20061;-86
2021/06/21 06:11:30;;;;;;;3.45;2.38;;;;;;;;;;4971964;28;20534;-86
2021/06/21 06:13:56;;;;;;;8.05;2.88;;;;;;;;;;4973838;28;20027;-89
2021/06/21 06:16:22;;;;;;;7.30;2.97;;;;;;;;;;4973842;28;20503;-88
2021/06/21 06:18:48;;;;;;;10.60;2.72;;;;;;;;;;4982420;28;20057;-88
2021/06/21 06:21:17;;;;;;;2.80;2.30;;;;;;;;;;4957108;28;20067;-87
2021/06/21 06:23:43;;;;;;;4.30;2.53;;;;;;;;;;4976071;28;20464;-87
2021/06/21 06:26:09;;;;;;;6.90;3.10;;;;;;;;;;4957576;28;20033;-87
2021/06/21 06:28:38;;;;;;;2.92;2.17;;;;;;;;;;4975073;28;20030;-88
2021/06/21 06:31:04;;;;;;;8.82;2.88;;;;;;;;;;4941004;28;20043;-86
2021/06/21 06:33:30;;;;;;;4.53;2.90;;;;;;;;;;4965281;28;20415;-87
2021/06/21 06:35:56;;;;;;;3.78;1.83;;;;;;;;;;4974190;28;20597;-87
2021/06/21 06:38:23;;;;;;;5.88;2.42;;;;;;;;;;4973687;28;20103;-89
2021/06/21 06:40:49;;;;;;;8.80;1.92;;;;;;;;;;4972968;28;20043;-86
2021/06/21 06:43:15;;;;;;;5.55;2.28;;;;;;;;;;4972711;28;20089;-87
2021/06/21 06:45:41;;;;;;;3.92;2.10;;;;;;;;;;4980570;28;20499;-87
2021/06/21 06:48:07;;;;;;;5.20;2.08;;;;;;;;;;4962129;28;20041;-87
2021/06/21 06:50:33;;;;;;;3.10;1.30;;;;;;;;;;4988735;28;20122;-87
2021/06/21 06:53:00;;;;;;;2.08;1.73;;;;;;;;;;4993136;28;20487;-87
2021/06/21 06:58:11;;;;;;;2.97;0.90;;;;;;;;;;4977281;28;20057;-91
2021/06/21 07:00:37;;;;;;;5.30;1.02;;;;;;;;;;4953383;28;20074;-90
2021/06/21 07:03:03;;;;;;;4.00;1.45;;;;;;;;;;4945057;28;20034;-89
2021/06/21 07:05:29;;;;;;;1.73;0.50;;;;;;;;;;4973796;28;20038;-88
2021/06/21 07:07:56;;;;;;;2.47;0.88;;;;;;;;;;4993280;28;20088;-93
2021/06/21 07:10:22;;;;;;;7.30;1.30;;;;;;;;;;4975220;28;20030;-90
2021/06/21 07:12:48;;;;;;;4.10;0.75;;;;;;;;;;4957300;28;20035;-93
2021/06/21 07:15:15;;;;;;;4.28;1.25;;;;;;;;;;4972900;28;20526;-92
2021/06/21 07:17:41;;;;;;;5.40;1.38;;;;;;;;;;4974376;28;20054;-93
2021/06/21 07:20:10;;;;;;;7.05;1.02;;;;;;;;;;4974248;28;20118;-94
2021/06/21 07:22:36;;;;;;;9.10;2.33;;;;;;;;;;4990755;28;20026;-93
2021/06/21 07:25:02;;;;;;;4.55;1.73;;;;;;;;;;4974328;28;20118;-91
2021/06/21 07:27:28;;;;;;;5.00;0.85;;;;;;;;;;4973266;28;20085;-93
2021/06/21 07:29:54;;;;;;;3.60;0.73;;;;;;;;;;4973579;28;20089;-93
2021/06/21 07:32:21;;;;;;;2.50;0.87;;;;;;;;;;4973987;28;20082;-92
2021/06/21 07:34:47;;;;;;;6.03;0.80;;;;;;;;;;4992368;28;20397;-91
2021/06/21 07:37:13;;;;;;;3.05;1.63;;;;;;;;;;4974752;28;20015;-93
2021/06/21 07:39:39;;;;;;;1.52;0.60;;;;;;;;;;4962175;28;20047;-90
2021/06/21 07:42:05;;;;;;;5.68;1.52;;;;;;;;;;4959845;28;20492;-92
2021/06/21 07:44:31;;;;;;;10.35;1.20;;;;;;;;;;4956572;28;20055;-92
2021/06/21 07:46:57;;;;;;;2.80;1.00;;;;;;;;;;4972546;28;20023;-93
2021/06/21 07:49:23;;;;;;;4.13;1.25;;;;;;;;;;4971832;28;20030;-94
2021/06/21 07:51:49;;;;;;;3.00;1.45;;;;;;;;;;4973287;28;20026;-92
2021/06/21 07:54:15;;;;;;;4.20;0.90;;;;;;;;;;4956195;28;20065;-93
2021/06/21 07:56:41;;;;;;;2.78;0.52;;;;;;;;;;4973486;28;20030;-92
2021/06/21 07:59:07;;;;;;;4.20;0.85;;;;;;;;;;4973212;28;20694;-92
2021/06/21 08:01:33;;;;;;;2.00;0.70;;;;;;;;;;4966966;28;20035;-93
2021/06/21 08:03:59;;;;;;;2.07;0.80;;;;;;;;;;4985902;28;20641;-93
2021/06/21 08:06:25;;;;;;;9.32;1.48;;;;;;;;;;4983213;28;20033;-92
2021/06/21 08:08:51;;;;;;;4.13;1.05;;;;;;;;;;4958848;28;20486;-92
2021/06/21 08:11:17;;;;;;;6.72;2.33;;;;;;;;;;4973803;28;20134;-93
2021/06/21 08:13:43;;;;;;;3.00;0.70;;;;;;;;;;4973997;28;20113;-90
2021/06/21 08:16:10;;;;;;;6.68;1.60;;;;;;;;;;4974217;28;20126;-94
2021/06/21 08:18:36;;;;;;;2.53;1.70;;;;;;;;;;4964944;28;20495;-92
2021/06/21 08:21:02;;;;;;;9.07;0.68;;;;;;;;;;4961676;28;20045;-89
2021/06/21 08:23:31;;;;;;;2.97;0.60;;;;;;;;;;4973657;28;20018;-91
2021/06/21 08:25:57;;;;;;;3.65;1.23;;;;;;;;;;4971241;28;20045;-92
2021/06/21 08:28:23;;;;;;;5.88;1.70;;;;;;;;;;4973829;28;20526;-90
2021/06/21 08:30:49;;;;;;;8.00;1.05;;;;;;;;;;4955724;28;20122;-90
2021/06/21 08:33:16;;;;;;;10.45;2.72;;;;;;;;;;4954344;28;20027;-91
2021/06/21 08:35:41;;;;;;;;;;;35.10;27.70;;;;;;4974003;28;20027;-89
2021/06/21 08:38:07;;;;;;;;;;;35.50;28.70;;;;;;4992243;28;19916;-88
2021/06/21 08:40:34;;;;;;;7.80;1.50;;;;;;;;;;4973311;28;19968;-89
2021/06/21 08:43:00;;;;;;;3.42;1.25;;;;;;;;;;4948940;28;20046;-89
2021/06/21 08:45:26;;;;;;;;;;;36.30;27.70;;;;;;4970013;28;20038;-87
2021/06/21 08:47:53;;;;;;;11.23;1.92;;;;;;;;;;4972842;28;20283;-87
2021/06/21 08:50:20;;;;;;;5.80;1.67;;;;;;;;;;4957899;28;20019;-87
2021/06/21 08:52:46;;;;;;;6.20;1.15;;;;;;;;;;4979775;28;20464;-89
2021/06/21 08:55:12;;;;;;;14.00;1.00;;;37.90;24.80;;;;;;4972696;28;20030;-89
2021/06/21 08:57:41;;;;;;;11.32;1.60;;;38.00;25.00;;;;;;4951917;28;20049;-93
2021/06/21 09:00:09;;;;;;;10.18;1.88;;;37.60;23.10;;;;;;4950607;28;20038;-88
2021/06/21 09:02:35;;;;;;;8.48;1.88;;;;;;;;;;4973615;28;20070;-89
2021/06/21 09:05:01;;;;;;;;;;;36.10;26.70;;;;;;4953280;28;20117;-93
2021/06/21 09:07:28;;;;;;;9.30;1.52;;;;;;;;;;4970765;28;19914;-87
2021/06/21 09:09:56;;;;;;;15.82;2.67;;;36.10;25.60;;;;;;4956674;28;20070;-88
2021/06/21 09:12:29;;;;;;;4.93;2.10;;;37.00;23.80;;;;;;4972361;28;20030;-90
2021/06/21 09:14:57;;;;;;;6.43;1.40;;;37.30;24.10;;;;;;4968843;28;20026;-86
2021/06/21 09:17:25;;;;;;;10.10;1.63;;;37.20;22.90;;;;;;4970297;28;20011;-86
2021/06/21 09:19:54;;;;;;;6.82;0.85;;;;;;;;;;4972748;28;20045;-91
2021/06/21 09:22:27;;;;;;;10.50;2.53;;;37.10;23.20;;;;;;4990044;28;20023;-92
2021/06/21 09:24:55;;;;;;;9.85;2.83;;;35.90;25.80;;;;;;4973046;28;20496;-91
2021/06/21 09:27:21;;;;;;;12.50;2.03;;;;;;;;;;4981258;28;20039;-91
2021/06/21 09:29:48;;;;;;;8.90;1.70;;;;;;;;;;4954324;28;20491;-92
2021/06/21 09:32:14;;;;;;;9.98;2.45;;;;;;;;;;4960091;28;20526;-86
2021/06/21 09:34:41;;;;;;;11.45;2.50;;;37.50;20.70;;;;;;4971858;28;20138;-86
2021/06/21 09:37:11;;;;;;;9.82;1.65;;;37.40;21.30;;;;;;4974267;28;20031;-86
2021/06/21 09:39:42;;;;;;;21.92;3.15;;;37.30;21.20;;;;;;4977022;28;20484;-86
2021/06/21 09:42:24;;;;;;;14.00;3.35;;;36.80;21.40;;;;;;4974948;28;20019;-86
2021/06/21 09:44:57;;;;;;;5.57;1.08;;;;;;;;;;4938532;29;20082;-92
2021/06/21 09:47:23;;;;;;;10.93;2.65;;;;;;;;;;4958513;28;20023;-88
2021/06/21 09:50:12;;;;;;;11.02;1.67;;;35.10;23.70;;;;;;4972149;28;20041;-87
2021/06/21 09:52:48;;;;;;;5.85;1.20;;;34.60;37.10;;;;;;4980657;28;20035;-86
2021/06/21 09:55:14;;;;;;;5.10;1.75;;;;;;;;;;4974064;28;20027;-91
2021/06/21 09:57:40;;;;;;;15.30;1.88;;;;;;;;;;4973418;28;20031;-87
2021/06/21 10:00:09;;;;;;;11.85;1.80;;;32.20;27.40;;;;;;4956028;28;20526;-87
2021/06/21 10:02:36;;;;;;;5.72;2.65;;;;;;;;;;4973131;28;20062;-86
2021/06/21 10:05:02;;;;;;;14.73;2.22;;;;;;;;;;4973518;28;20039;-86
2021/06/21 10:07:35;;;;;;;6.75;2.45;;;;;;;;;;4974316;28;20046;-85
2021/06/21 10:10:07;;;;;;;6.90;2.97;;;30.00;31.80;;;;;;4969491;28;20039;-86
2021/06/21 10:12:34;;;;;;;9.32;2.90;;;;;;;;;;4966196;28;20035;-92
2021/06/21 10:15:00;;;;;;;15.95;2.28;;;;;;;;;;4976914;28;20034;-86
2021/06/21 10:17:26;;;;;;;12.52;3.92;;;;;;;;;;4973968;28;20038;-85
2021/06/21 10:19:55;;;;;;;10.05;2.78;;;;;;;;;;4969132;28;20054;-87
2021/06/21 10:22:23;;;;;;;12.32;2.47;;;30.90;30.90;;;;;;4988567;28;20050;-87
2021/06/21 10:24:50;;;;;;;9.82;2.38;;;;;;;;;;4965021;28;20046;-84
2021/06/21 10:27:18;;;;;;;14.43;3.08;;;32.70;27.60;;;;;;4980832;28;20049;-87
2021/06/21 10:29:44;;;;;;;14.43;3.97;;;;;;;;;;4952915;28;20543;-87
2021/06/21 10:32:10;;;;;;;20.13;4.10;;;;;;;;;;4973099;28;20030;-86
2021/06/21 10:34:36;;;;;;;3.33;1.90;;;;;;;;;;4973669;28;20019;-86
2021/06/21 10:37:02;;;;;;;5.43;2.15;;;;;;;;;;4973335;28;20062;-85
2021/06/21 10:39:29;;;;;;;12.18;2.80;;;;;;;;;;4977331;28;20041;-86
2021/06/21 10:42:04;;;;;;;7.32;1.88;;;32.60;27.90;;;;;;4972679;28;20158;-85
2021/06/21 10:44:44;;;;;;;10.13;2.03;;;33.40;27.00;;;;;;4972453;28;20125;-86
2021/06/21 10:47:26;;;;;;;6.60;1.90;;;;;;;;;;4972064;28;20031;-86
2021/06/21 10:49:58;;;;;;;16.40;2.80;;;;;;;;;;4953337;29;20054;-87
2021/06/21 10:52:36;;;;;;;9.32;2.22;;;;;;;;;;4971466;28;20034;-87
2021/06/21 10:55:36;;;;;;;8.65;1.48;;;35.50;22.90;;;;;;4971840;28;20042;-86
2021/06/21 10:58:07;;;;;;;13.38;1.95;;;;;;;;;;4928326;29;20593;-86
2021/06/21 11:00:42;;;;;;;11.10;2.38;;;34.90;22.40;;;;;;4926240;29;20051;-86
2021/06/21 11:03:34;;;;;;;16.27;2.90;;;35.10;21.50;;;;;;4932428;29;20034;-87
2021/06/21 11:06:18;;;;;;;6.95;1.95;;;35.10;22.40;;;;;;4915646;29;20067;-85
2021/06/21 11:08:50;;;;;;;8.10;1.98;;;34.80;22.70;;;;;;4901002;29;20079;-86
2021/06/21 11:11:35;;;;;;;10.95;2.13;;;33.90;23.10;;;;;;4931382;29;20122;-87
2021/06/21 11:14:13;;;;;;;5.97;1.57;;;;;;;;;;4931884;29;20028;-85
2021/06/21 11:16:41;;;;;;;18.60;1.63;;;32.20;24.70;;;;;;4923953;29;20263;-87
2021/06/21 11:19:20;;;;;;;8.88;2.03;;;;;;;;;;4933515;29;20051;-86
2021/06/21 11:21:54;;;;;;;4.60;1.60;;;30.80;27.50;;;;;;4913749;29;20091;-86
2021/06/21 11:24:39;;;;;;;8.57;2.47;;;30.30;27.60;;;;;;4915890;29;20027;-85
2021/06/21 11:27:12;;;;;;;7.35;1.30;;;30.00;45.40;;;;;;4930675;29;20052;-86
2021/06/21 11:29:43;;;;;;;9.63;2.47;;;29.80;29.80;;;;;;4930658;29;20074;-87
2021/06/21 11:32:10;;;;;;;9.93;1.88;;;;;;;;;;4927096;29;20023;-87
2021/06/21 11:35:02;;;;;;;16.50;2.30;;;29.30;30.10;;;;;;4963793;28;20038;-86
2021/06/21 11:37:29;;;;;;;10.25;1.48;;;;;;;;;;4971202;28;20065;-86
2021/06/21 11:40:16;;;;;;;8.70;3.10;;;28.80;30.90;;;;;;4961522;28;20093;-86
2021/06/21 11:42:43;;;;;;;11.52;3.05;;;;;;;;;;4971566;28;20101;-86
2021/06/21 11:45:10;;;;;;;12.57;2.30;;;;;;;;;;4972758;28;20064;-85
2021/06/21 11:47:38;;;;;;;9.93;2.38;;;;;;;;;;4959997;28;20138;-91
2021/06/21 11:50:16;;;;;;;9.88;2.92;;;;;;;;;;4967308;28;20628;-87
2021/06/21 11:52:43;;;;;;;9.13;1.75;;;;;;;;;;4966938;28;20045;-86
2021/06/21 11:55:16;;;;;;;;;;;27.90;34.70;;;;;;4970447;28;20031;-87
2021/06/21 11:57:49;;;;;;;15.18;2.55;;;28.00;34.50;;;;;;4967535;28;20254;-91
2021/06/21 12:00:16;;;;;;;10.05;3.35;;;28.00;35.20;;;;;;4957560;28;20420;-89
2021/06/21 12:02:42;;;;;;;9.80;1.77;;;;;;;;;;4967812;28;20492;-86
2021/06/21 12:05:10;;;;;;;7.70;2.22;;;28.20;35.60;;;;;;4969712;28;20045;-86
2021/06/21 12:07:38;;;;;;;14.60;2.40;;;;;;;;;;4964661;28;20118;-87
2021/06/21 12:10:18;;;;;;;7.10;2.08;;;;;;;;;;4970283;28;20808;-87
2021/06/21 12:12:45;;;;;;;4.15;2.33;;;28.60;35.30;;;;;;4969859;28;20041;-87
2021/06/21 12:15:26;;;;;;;21.23;2.22;;;28.70;33.20;;;;;;4955432;28;20031;-87
2021/06/21 12:17:53;;;;;;;11.23;1.60;;;;;;;;;;4952066;28;20030;-88
2021/06/21 12:20:19;;;;;;;7.20;1.83;;;;;;;;;;4974949;28;20062;-89
2021/06/21 12:23:11;;;;;;;9.77;2.92;;;28.90;32.20;;;;;;4970051;28;20030;-88
2021/06/21 12:25:43;;;;;;;6.22;2.58;;;;;;;;;;4973731;28;20579;-89
2021/06/21 12:28:09;;;;;;;12.52;2.30;;;;;;;;;;4964554;28;20119;-92
2021/06/21 12:30:36;;;;;;;9.82;2.40;;;;;;;;;;4970332;28;20117;-85
2021/06/21 12:33:19;;;;;;;19.13;5.40;;;;;;;;;;4967229;28;20027;-85
2021/06/21 12:36:10;;;;;;;5.53;2.22;;;27.60;31.40;;;;;;4969595;28;20101;-85
2021/06/21 12:38:37;;;;;;;17.17;3.58;;;;;;;;;;4960675;28;20054;-85
2021/06/21 12:41:03;;;;;;;;;;;;;;;;;;4970127;28;20078;-86
2021/06/21 12:43:29;;;;;;;4.50;1.50;;;;;;;;;;4966379;28;19949;-85
2021/06/21 12:45:55;;;;;;;8.50;2.15;;;;;;;;;;4970181;28;20030;-91
2021/06/21 12:48:23;;;;;;;8.27;2.67;;;;;;;;;;4968188;28;20511;-92
2021/06/21 12:50:50;;;;;;;8.40;1.55;;;;;;;;;;4974857;28;20049;-93
2021/06/21 12:53:16;;;;;;;;;;;27.30;32.40;;;;;;4971159;28;20114;-91
2021/06/21 12:55:42;;;;;;;8.17;1.10;;;;;;;;;;4969569;28;20351;-89
2021/06/21 12:58:08;;;;;;;12.00;1.63;;;;;;;;;;4950366;28;20530;-92
2021/06/21 13:00:50;;;;;;;3.70;2.10;;;;;;;;;;4975094;28;20058;-86
2021/06/21 13:03:23;;;;;;;5.75;2.00;;;27.40;33.20;;;;;;4969663;28;20073;-89
2021/06/21 13:05:55;;;;;;;10.23;1.80;;;;;;;;;;4969992;28;20020;-91
2021/06/21 13:08:30;;;;;;;2.72;1.17;;;;;;;;;;4965960;28;20051;-91
2021/06/21 13:11:10;;;;;;;10.05;1.50;;;27.60;32.70;;;;;;4971411;28;20023;-91
2021/06/21 13:13:41;;;;;;;3.15;1.70;;;;;;;;;;4970039;28;20035;-93
2021/06/21 13:16:08;;;;;;;7.32;2.15;;;;;;;;;;4975120;28;20050;-92
2021/06/21 13:18:48;;;;;;;2.65;1.25;;;;;;;;;;4968507;28;20038;-91
2021/06/21 13:21:14;;;;;;;4.35;1.52;;;;;;;;;;4974809;28;20050;-90
2021/06/21 13:23:50;;;;;;;10.47;2.43;;;;;;;;;;4974266;28;20042;-90
2021/06/21 13:26:16;;;;;;;4.32;1.73;;;;;;;;;;4971431;28;20062;-90
2021/06/21 13:28:45;;;;;;;5.35;2.38;;;;;;;;;;4966907;28;20113;-88
2021/06/21 13:31:11;;;;;;;9.18;3.50;;;;;;;;;;4975460;28;20042;-89
2021/06/21 13:33:47;;;;;;;13.80;3.10;;;;;;;;;;4972882;28;20038;-91
2021/06/21 13:36:13;;;;;;;6.88;1.60;;;;;;;;;;4957448;28;20377;-90
2021/06/21 13:38:43;;;;;;;13.77;5.00;;;;;;;;;;4952059;28;20035;-91
2021/06/21 13:41:18;;;;;;;3.47;1.90;;;;;;;;;;4972458;28;20150;-87
2021/06/21 13:43:44;;;;;;;3.45;1.77;;;;;;;;;;4975043;28;20146;-88
2021/06/21 13:46:14;;;;;;;6.47;1.67;;;24.60;41.70;;;;;;4972924;28;20129;-86
2021/06/21 13:48:41;;;;;;;2.97;0.98;;;;;;;;;;4972258;28;20154;-92
2021/06/21 13:51:15;;;;;;;15.13;1.33;;;;;;;;;;4974182;28;20033;-92
2021/06/21 13:53:41;;;;;;;8.00;2.03;;;;;;;;;;4971676;28;20510;-89
2021/06/21 13:56:28;;;;;;;2.42;1.55;;;;;;;;;;4973961;28;20019;-91
2021/06/21 13:59:02;;;;;;;2.28;1.50;;;;;;;;;;4970132;28;20125;-91
2021/06/21 14:01:29;;;;;;;1.35;1.25;;;22.90;44.40;;;;;;4973495;28;20046;-91
2021/06/21 14:03:57;;;;;;;4.20;1.52;;;;;;;;;;4975559;28;20038;-91
2021/06/21 14:06:25;;;;;;;4.13;0.70;;;22.80;46.00;;;;;;4974036;28;20038;-93
2021/06/21 14:08:52;;;;;;;1.35;0.45;;;;;;;;;;4950099;28;20099;-92
2021/06/21 14:11:18;;;;;;;4.95;0.75;;;;;;;;;;4972056;28;20518;-92
2021/06/21 14:13:45;;;;;;;0.95;0.70;;;;;;;;;;4954347;29;20098;-91
2021/06/21 14:16:18;;;;;;;5.67;0.90;;;22.40;48.10;;;;;;4973832;28;20061;-92
2021/06/21 14:18:45;;;;;;;3.38;0.75;;;;;;;;;;4969681;28;20285;-92
2021/06/21 14:21:11;;;;;;;3.15;0.60;;;;;;;;;;4972617;28;20391;-90
2021/06/21 14:23:38;;;;;;;3.72;1.10;;;22.50;50.10;;;;;;4974079;28;20027;-93
2021/06/21 14:26:05;;;;;;;1.45;0.70;;;;;;;;;;4970901;28;20038;-91
2021/06/21 14:28:31;;;;;;;1.33;0.80;;;;;;;;;;4969933;28;20527;-94
2021/06/21 14:30:57;;;;;;;1.80;0.77;;;;;;;;;;4972882;28;20033;-91
2021/06/21 14:33:23;;;;;;;0.80;0.68;;;;;;;;;;4973961;28;20449;-90
2021/06/21 14:35:50;;;;;;;1.75;1.20;;;;;;;;;;4974492;28;20492;-91